Time;durP1;ratioP1;P1;durP2;ratioP2;P2;SDS_P1;SDS_P2;PMS_P1;PMS_P2;Temp;Humidity;BMP_temperature;BMP_pressure;BME280_temperature;BME280_humidity;BME280_pressure;Samples;Min_cycle;Max_cycle;Signal;HPM_P1;HPM_P2
2022/12/19 00:01:18;;;;;;;76.90;40.03;;;77.40;2227.20;;;;;;4957116;29;20043;-86
2022/12/19 00:04:20;;;;;;;86.13;45.90;;;77.20;2227.20;;;;;;4933020;29;20063;-88
2022/12/19 00:11:15;;;;;;;83.90;46.72;;;77.00;2227.20;;;;;;4961300;29;20411;-86
2022/12/19 00:32:43;;;;;;;95.88;56.33;;;77.10;2227.20;;;;;;4843553;29;20106;-85
2022/12/19 00:36:22;;;;;;;76.85;46.08;;;77.00;2227.20;;;;;;4865344;29;20121;-84
2022/12/19 00:50:07;;;;;;;67.80;35.88;;;77.10;2227.20;;;;;;4893598;29;20075;-86
2022/12/19 00:52:59;;;;;;;69.13;37.17;;;77.20;2227.20;;;;;;4957664;29;20027;-86
2022/12/19 00:56:12;;;;;;;79.63;40.45;;;77.20;2227.20;;;;;;4918077;29;20035;-87
2022/12/19 00:59:42;;;;;;;68.03;37.55;;;77.20;2227.20;;;;;;4937758;29;20043;-86
2022/12/19 01:03:05;;;;;;;80.22;42.72;;;77.20;2227.20;;;;;;4880934;29;20475;-86
2022/12/19 01:10:23;;;;;;;68.60;36.08;;;77.10;2227.20;;;;;;4943748;29;20042;-84
2022/12/19 01:13:24;;;;;;;67.35;35.53;;;77.10;2227.20;;;;;;4941217;29;20433;-86
2022/12/19 01:24:07;;;;;;;64.85;32.90;;;77.10;2227.20;;;;;;4888576;29;20101;-84
2022/12/19 01:27:10;;;;;;;57.17;31.63;;;77.00;2227.20;;;;;;4865388;29;20575;-84
2022/12/19 01:37:24;;;;;;;;;;;77.00;2227.20;;;;;;4845567;29;21159;-85
2022/12/19 01:40:41;;;;;;;55.88;30.67;;;76.90;2227.20;;;;;;4863685;29;19942;-84
2022/12/19 01:44:12;;;;;;;64.65;33.30;;;76.90;2227.20;;;;;;4846087;29;20042;-84
2022/12/19 01:47:27;;;;;;;56.75;29.42;;;76.90;2227.20;;;;;;4772775;30;20062;-84
2022/12/19 01:50:45;;;;;;;57.50;32.92;;;77.00;2227.20;;;;;;4742488;30;20536;-83
2022/12/19 01:57:48;;;;;;;56.78;29.73;;;77.00;2227.20;;;;;;4753461;29;20042;-81
2022/12/19 02:01:33;;;;;;;51.33;29.23;;;76.90;2227.20;;;;;;4825147;29;20058;-84
2022/12/19 02:08:33;;;;;;;50.75;26.65;;;76.80;2227.20;;;;;;4841030;29;20044;-84
2022/12/19 02:11:51;;;;;;;51.92;26.52;;;52.10;2227.20;;;;;;4883627;29;20037;-83
2022/12/19 02:15:19;;;;;;;51.65;27.10;;;51.90;2227.20;;;;;;4890035;29;20037;-83
2022/12/19 02:25:07;;;;;;;43.58;23.85;;;;;;;;;;4829704;29;20132;-84
2022/12/19 02:34:26;;;;;;;46.88;26.27;;;;;;;;;;4826283;29;20036;-83
2022/12/19 02:37:47;;;;;;;48.65;26.80;;;;;;;;;;4795621;29;20042;-85
2022/12/19 02:44:45;;;;;;;44.40;24.42;;;52.10;2227.20;;;;;;4814672;29;20060;-82
2022/12/19 03:01:59;;;;;;;44.95;24.10;;;51.90;2227.20;;;;;;4932827;28;20047;-82
2022/12/19 03:05:34;;;;;;;51.03;26.42;;;51.90;2227.20;;;;;;4930695;29;20076;-82
2022/12/19 03:09:03;;;;;;;44.45;23.90;;;51.90;2227.20;;;;;;4870578;29;20045;-82
2022/12/19 03:12:54;;;;;;;54.60;26.17;;;52.00;2227.20;;;;;;4908803;29;20084;-82
2022/12/19 03:15:58;;;;;;;44.65;25.23;;;52.00;2227.20;;;;;;4885193;29;20045;-83
2022/12/19 03:22:56;;;;;;;45.65;25.25;;;51.90;2227.20;;;;;;4886119;29;20036;-81
2022/12/19 03:30:09;;;;;;;49.35;27.58;;;52.00;2227.20;;;;;;4869116;29;20541;-83
2022/12/19 03:33:38;;;;;;;47.17;25.13;;;52.10;2227.20;;;;;;4806752;29;20046;-83
2022/12/19 03:37:05;;;;;;;48.97;24.95;;;52.00;2227.20;;;;;;4779156;29;20039;-82
2022/12/19 03:40:16;;;;;;;50.20;25.35;;;51.90;2227.20;;;;;;4739050;30;20051;-83
2022/12/19 03:47:01;;;;;;;49.90;27.35;;;51.90;2227.20;;;;;;4768933;30;20046;-82
2022/12/19 03:50:08;;;;;;;49.75;26.40;;;51.90;2227.20;;;;;;4778660;30;20052;-82
2022/12/19 03:53:49;;;;;;;55.70;30.00;;;52.00;2227.20;;;;;;4812991;29;20034;-81
2022/12/19 04:10:38;;;;;;;59.28;29.98;;;51.80;2227.20;;;;;;4736113;30;20064;-82
2022/12/19 04:13:52;;;;;;;50.83;27.60;;;52.00;2227.20;;;;;;4725780;30;20054;-82
2022/12/19 04:17:26;;;;;;;49.28;25.67;;;52.00;2227.20;;;;;;4712866;30;20052;-82
2022/12/19 04:20:30;;;;;;;56.38;27.75;;;52.00;2227.20;;;;;;4759228;30;20052;-81
2022/12/19 04:27:22;;;;;;;57.47;29.60;;;52.10;2227.20;;;;;;4768767;30;20050;-82
2022/12/19 04:30:52;;;;;;;60.47;28.75;;;52.10;2227.20;;;;;;4767932;30;20043;-81
2022/12/19 04:40:47;;;;;;;48.22;26.48;;;52.10;2227.20;;;;;;4819995;29;20543;-80
2022/12/19 04:51:47;;;;;;;56.88;31.83;;;52.00;2227.20;;;;;;4946173;29;20059;-82
2022/12/19 04:55:24;;;;;;;55.97;30.25;;;52.00;2227.20;;;;;;4850097;29;20082;-82
2022/12/19 05:19:39;;;;;;;53.47;29.77;;;51.90;2227.20;;;;;;4864621;29;20406;-80
2022/12/19 05:22:46;;;;;;;51.80;26.88;;;51.90;2227.20;;;;;;4824402;29;20091;-80
2022/12/19 05:26:00;;;;;;;56.10;28.17;;;51.90;2227.20;;;;;;4821015;29;20062;-81
2022/12/19 05:29:16;;;;;;;55.88;29.67;;;51.80;2227.20;;;;;;4815271;29;20042;-81
2022/12/19 05:33:21;;;;;;;54.63;28.50;;;51.90;2227.20;;;;;;4833589;29;20037;-81
2022/12/19 05:37:09;;;;;;;51.83;28.23;;;51.90;2227.20;;;;;;4833925;29;20526;-82
2022/12/19 05:44:11;;;;;;;49.88;25.88;;;51.90;2227.20;;;;;;4748746;30;20114;-83
2022/12/19 05:51:04;;;;;;;54.10;27.98;;;52.00;2227.20;;;;;;4730843;30;20052;-82
2022/12/19 05:54:37;;;;;;;60.25;29.88;;;51.90;2227.20;;;;;;4668217;30;20057;-83
2022/12/19 05:58:19;;;;;;;59.67;30.75;;;51.90;2227.20;;;;;;4676419;30;20062;-83
2022/12/19 06:05:45;;;;;;;56.00;28.55;;;51.70;2227.20;;;;;;4682803;30;20064;-82
2022/12/19 06:13:16;;;;;;;54.55;25.33;;;51.80;2227.20;;;;;;4882687;27;20055;-84
2022/12/19 06:19:47;;;;;;;50.20;29.92;;;51.70;2227.20;;;;;;4887636;29;20121;-82
2022/12/19 06:23:14;;;;;;;53.13;26.90;;;51.60;2227.20;;;;;;4875913;29;20037;-82
2022/12/19 06:26:53;;;;;;;70.28;42.90;;;51.60;2227.20;;;;;;4859768;29;20060;-81
2022/12/19 06:30:48;;;;;;;64.43;34.97;;;51.60;2227.20;;;;;;4853754;29;20133;-81
2022/12/19 06:37:45;;;;;;;57.03;29.17;;;51.50;2227.20;;;;;;4770631;30;20081;-81
2022/12/19 06:48:21;;;;;;;63.15;30.80;;;51.40;2227.20;;;;;;5039934;23;20054;-80
2022/12/19 07:05:08;;;;;;;54.38;31.65;;;51.50;2227.20;;;;;;5017709;23;20101;-82
2022/12/19 07:44:02;;;;;;;55.90;33.22;;;51.80;2227.20;;;;;;4117808;27;20044;-82
2022/12/19 09:49:18;;;;;;;37.40;22.50;;;77.40;2227.20;;;;;;5044596;23;20121;-79
2022/12/19 09:52:32;;;;;;;34.30;21.05;;;77.30;2227.20;;;;;;5003282;28;20525;-79
2022/12/19 09:55:27;;;;;;;38.65;22.15;;;77.30;2227.20;;;;;;5006013;28;20038;-80
2022/12/19 09:58:33;;;;;;;49.65;28.02;;;77.00;2227.20;;;;;;4988676;28;20157;-79
2022/12/19 10:01:50;;;;;;;45.42;27.17;;;77.00;2227.20;;;;;;4974908;28;20094;-80
2022/12/19 10:04:45;;;;;;;39.58;23.85;;;77.30;2227.20;;;;;;4973992;28;20031;-80
2022/12/19 10:07:45;;;;;;;45.15;27.90;;;77.40;2227.20;;;;;;4956246;28;20026;-79
2022/12/19 10:10:54;;;;;;;42.78;27.33;;;77.60;2227.20;;;;;;4979225;28;20115;-83
2022/12/19 10:13:37;;;;;;;66.80;37.83;;;;;;;;;;4982970;28;20057;-79
2022/12/19 10:16:08;;;;;;;51.00;29.90;;;;;;;;;;5001112;28;20108;-79
2022/12/19 10:18:58;;;;;;;46.40;25.08;;;;;;;;;;4984287;28;20561;-78
2022/12/19 10:21:27;;;;;;;52.08;30.40;;;102.70;2227.20;;;;;;4959127;28;20066;-79
2022/12/19 10:24:02;;;;;;;39.95;24.52;;;102.70;2227.20;;;;;;4969873;28;20497;-80
2022/12/19 10:26:41;;;;;;;42.20;25.50;;;77.70;2227.20;;;;;;4978826;28;20026;-80
2022/12/19 10:29:32;;;;;;;56.30;32.72;;;;;;;;;;4977724;28;20035;-79
2022/12/19 10:32:03;;;;;;;40.78;25.08;;;;;;;;;;4970520;28;20026;-81
2022/12/19 10:34:48;;;;;;;41.85;25.38;;;;;;;;;;4966377;28;20023;-80
2022/12/19 10:37:20;;;;;;;46.80;30.98;;;;;;;;;;4974398;28;20110;-82
2022/12/19 10:40:14;;;;;;;52.95;34.65;;;;;;;;;;4983362;28;20106;-81
2022/12/19 10:43:22;;;;;;;46.72;27.02;;;;;;;;;;4975713;28;20034;-82
2022/12/19 10:45:56;;;;;;;53.55;33.13;;;;;;;;;;4913815;29;20048;-83
2022/12/19 10:48:24;;;;;;;43.35;26.25;;;102.70;2227.20;;;;;;4966876;28;20038;-82
2022/12/19 10:50:52;;;;;;;51.33;31.63;;;102.60;2227.20;;;;;;4953517;28;20033;-84
2022/12/19 10:53:27;;;;;;;46.17;26.60;;;102.50;2227.20;;;;;;4937520;28;20034;-84
2022/12/19 10:55:56;;;;;;;106.47;63.55;;;102.60;2227.20;;;;;;4973337;28;20030;-83
2022/12/19 10:58:44;;;;;;;58.20;34.33;;;102.70;2227.20;;;;;;4973210;28;20039;-83
2022/12/19 11:01:14;;;;;;;56.92;33.40;;;102.50;2227.20;;;;;;4969206;28;20026;-80
2022/12/19 11:03:45;;;;;;;53.67;32.50;;;;;;;;;;4966621;28;20022;-82
2022/12/19 11:06:30;;;;;;;51.40;31.15;;;;;;;;;;4966279;28;20026;-82
2022/12/19 11:09:56;;;;;;;65.10;37.33;;;102.90;2227.20;;;;;;4939241;29;20027;-84
2022/12/19 11:12:31;;;;;;;50.42;28.98;;;102.80;2227.20;;;;;;4955587;28;20035;-85
2022/12/19 11:15:52;;;;;;;45.38;29.15;;;102.90;2227.20;;;;;;4967551;28;20054;-85
2022/12/19 11:18:24;;;;;;;55.38;26.30;;;102.90;2227.20;;;;;;4964460;28;20027;-84
2022/12/19 11:21:21;;;;;;;55.63;30.00;;;102.90;2227.20;;;;;;4946785;28;20375;-83
2022/12/19 11:24:30;;;;;;;54.90;28.90;;;102.90;2227.20;;;;;;4976707;28;20042;-84
2022/12/19 11:26:59;;;;;;;45.35;25.55;;;102.90;2227.20;;;;;;4957807;28;20117;-83
2022/12/19 11:29:46;;;;;;;42.78;26.23;;;103.00;2227.20;;;;;;4982339;28;20042;-83
2022/12/19 11:32:36;;;;;;;40.53;22.92;;;103.20;2227.20;;;;;;4968503;28;20058;-83
2022/12/19 11:35:13;;;;;;;37.70;23.40;;;128.10;2252.80;;;;;;4942036;28;20024;-82
2022/12/19 11:37:56;;;;;;;38.40;20.65;;;128.20;2252.80;;;;;;4960507;28;20100;-86
2022/12/19 11:41:14;;;;;;;33.95;22.00;;;128.50;2252.80;;;;;;4960373;28;20145;-83
2022/12/19 11:44:29;;;;;;;36.97;20.90;;;128.40;2252.80;;;;;;4976950;28;20521;-85
2022/12/19 11:47:21;;;;;;;33.33;19.00;;;;;;;;;;4985420;28;20038;-84
2022/12/19 11:53:16;;;;;;;46.33;29.08;;;;;;;;;;4983555;28;20069;-83
2022/12/19 11:55:45;;;;;;;43.53;26.00;;;;;;;;;;4969907;28;20058;-84
2022/12/19 11:58:12;;;;;;;30.95;18.17;;;;;;;;;;4966855;28;20031;-86
2022/12/19 12:00:42;;;;;;;38.83;22.88;;;;;;;;;;4987426;28;20030;-85
2022/12/19 12:03:32;;;;;;;36.40;21.27;;;179.50;2252.80;;;;;;4968692;28;20054;-86
2022/12/19 12:06:00;;;;;;;35.75;21.60;;;;;;;;;;4967061;28;20046;-83
2022/12/19 12:08:35;;;;;;;30.77;19.63;;;179.30;2252.80;;;;;;4968300;28;20041;-83
2022/12/19 12:11:09;;;;;;;32.78;19.30;;;154.40;2252.80;;;;;;4957500;29;20031;-81
2022/12/19 12:14:11;;;;;;;40.88;22.83;;;179.20;2252.80;;;;;;4941949;29;20062;-83
2022/12/19 12:16:56;;;;;;;45.20;27.27;;;179.30;2252.80;;;;;;4980815;28;20137;-83
2022/12/19 12:19:42;;;;;;;29.33;17.10;;;;;;;;;;4957498;29;20031;-83
2022/12/19 12:22:36;;;;;;;31.35;18.75;;;154.40;2252.80;;;;;;4941021;29;20031;-84
2022/12/19 12:25:17;;;;;;;48.60;25.52;;;179.30;2252.80;;;;;;4941520;29;20388;-84
2022/12/19 12:28:04;;;;;;;44.17;25.48;;;179.50;2252.80;;;;;;4941608;29;20024;-83
2022/12/19 12:30:39;;;;;;;33.95;18.02;;;;;;;;;;4954750;28;20058;-90
2022/12/19 12:33:24;;;;;;;32.20;20.27;;;;;;;;;;4960626;28;20023;-87
2022/12/19 12:36:13;;;;;;;29.10;16.20;;;;;;;;;;4959747;28;20445;-85
2022/12/19 12:39:01;;;;;;;30.05;16.55;;;154.50;2252.80;;;;;;4916957;28;20107;-87
2022/12/19 12:42:04;;;;;;;29.95;19.38;;;179.20;2252.80;;;;;;4960380;28;20023;-85
2022/12/19 12:44:37;;;;;;;31.58;18.20;;;179.30;2252.80;;;;;;4947634;28;20018;-86
2022/12/19 12:47:20;;;;;;;28.73;16.75;;;154.40;2252.80;;;;;;4959951;28;20027;-88
2022/12/19 12:49:54;;;;;;;28.58;17.40;;;154.50;2252.80;;;;;;4959058;28;20125;-88
2022/12/19 12:53:01;;;;;;;29.38;19.08;;;154.50;2252.80;;;;;;4965424;28;20054;-89
2022/12/19 12:55:39;;;;;;;27.83;18.23;;;154.50;2252.80;;;;;;4962100;28;20027;-89
2022/12/19 12:58:05;;;;;;;32.10;21.48;;;154.30;2252.80;;;;;;4968842;28;20022;-88
2022/12/19 13:00:35;;;;;;;48.72;28.92;;;154.10;2252.80;;;;;;4970358;28;20034;-87
2022/12/19 13:03:15;;;;;;;43.92;27.70;;;154.50;2252.80;;;;;;4957169;29;20030;-90
2022/12/19 13:05:44;;;;;;;45.92;29.45;;;179.20;2252.80;;;;;;4957184;29;20041;-88
2022/12/19 13:08:36;;;;;;;45.92;26.63;;;154.50;2252.80;;;;;;4957447;29;20023;-90
2022/12/19 13:12:58;;;;;;;47.15;28.30;;;154.50;2252.80;;;;;;4957112;29;20388;-90
2022/12/19 13:13:59;;;;;;;47.28;27.48;;;154.50;2252.80;;;;;;4949250;29;20031;-87
2022/12/19 13:16:43;;;;;;;37.30;23.05;;;179.50;2252.80;;;;;;4963808;28;20010;-84
2022/12/19 13:19:24;;;;;;;34.70;20.55;;;154.50;2252.80;;;;;;4979598;28;20016;-88
2022/12/19 13:22:20;;;;;;;34.47;21.50;;;154.50;2252.80;;;;;;4961139;28;20031;-86
2022/12/19 13:24:57;;;;;;;46.38;25.42;;;179.20;2252.80;;;;;;4956771;29;20031;-85
2022/12/19 13:27:39;;;;;;;42.92;25.83;;;179.20;2252.80;;;;;;4956752;29;20027;-86
2022/12/19 13:30:16;;;;;;;44.25;27.00;;;154.50;2252.80;;;;;;4956610;29;20126;-87
2022/12/19 13:32:41;;;;;;;47.78;30.20;;;154.40;2252.80;;;;;;4956253;29;20032;-87
2022/12/19 13:35:10;;;;;;;51.90;31.58;;;154.20;2252.80;;;;;;4956503;29;20456;-86
2022/12/19 13:37:42;;;;;;;42.33;26.55;;;154.20;2252.80;;;;;;4955937;29;20079;-85
2022/12/19 13:40:33;;;;;;;40.63;24.83;;;;;;;;;;4956164;29;20074;-86
2022/12/19 13:46:26;;;;;;;;;;;153.60;2252.80;;;;;;4937944;29;20088;-86
2022/12/19 13:48:54;;;;;;;94.50;52.38;;;;;;;;;;4935708;29;19919;-86
2022/12/19 13:51:21;;;;;;;149.52;88.25;;;;;;;;;;4935530;29;20027;-86
2022/12/19 13:53:52;;;;;;;93.82;54.90;;;153.60;2252.80;;;;;;4936364;29;20091;-86
2022/12/19 13:56:19;;;;;;;51.08;32.05;;;128.90;2252.80;;;;;;4936434;29;20031;-87
2022/12/19 13:58:53;;;;;;;54.85;34.72;;;153.60;2252.80;;;;;;4936819;29;20036;-81
2022/12/19 14:01:34;;;;;;;49.13;36.38;;;153.70;2252.80;;;;;;4936614;29;20035;-81
2022/12/19 14:04:23;;;;;;;46.65;30.90;;;128.80;2252.80;;;;;;4936678;29;20476;-81
2022/12/19 14:06:59;;;;;;;59.13;36.42;;;128.80;2252.80;;;;;;4930114;29;20173;-80
2022/12/19 14:09:38;;;;;;;66.28;39.78;;;128.70;2252.80;;;;;;4936103;29;20031;-80
2022/12/19 14:12:06;;;;;;;69.50;56.90;;;;;;;;;;4936581;29;20042;-82
2022/12/19 14:17:18;;;;;;;47.83;31.75;;;;;;;;;;4937272;29;20075;-84
2022/12/19 14:19:46;;;;;;;62.30;44.65;;;;;;;;;;4935960;29;20031;-80
2022/12/19 14:22:18;;;;;;;65.43;44.80;;;;;;;;;;4936126;29;20503;-79
2022/12/19 14:24:55;;;;;;;92.50;59.25;;;;;;;;;;4936314;29;20027;-81
2022/12/19 14:27:23;;;;;;;78.22;47.63;;;;;;;;;;4935975;29;20028;-81
2022/12/19 14:29:55;;;;;;;90.35;52.50;;;;;;;;;;4935990;29;20480;-84
2022/12/19 14:32:22;;;;;;;106.88;63.45;;;;;;;;;;4935810;29;20036;-79
2022/12/19 14:34:49;;;;;;;136.02;78.75;;;128.10;2252.80;;;;;;4935482;29;20024;-81
2022/12/19 14:37:29;;;;;;;150.15;92.60;;;103.30;2227.20;;;;;;4935746;29;20035;-81
2022/12/19 14:40:07;;;;;;;119.03;69.80;;;;;;;;;;4953297;28;20475;-78
2022/12/19 14:45:32;;;;;;;172.57;99.95;;;;;;;;;;4953344;28;20042;-81
2022/12/19 14:47:58;;;;;;;156.75;96.68;;;;;;;;;;4934873;29;20024;-81
2022/12/19 14:50:29;;;;;;;119.07;77.55;;;;;;;;;;4934047;29;20032;-81
2022/12/19 14:53:14;;;;;;;160.40;97.05;;;;;;;;;;4934769;29;20103;-80
2022/12/19 14:55:41;;;;;;;176.48;107.55;;;;;;;;;;4935111;29;20024;-81
2022/12/19 14:58:12;;;;;;;171.80;108.53;;;;;;;;;;4935684;29;20075;-81
2022/12/19 15:00:46;;;;;;;166.25;103.45;;;;;;;;;;4935838;29;20032;-82
2022/12/19 15:03:18;;;;;;;176.60;108.40;;;;;;;;;;4934859;29;20030;-81
2022/12/19 15:05:46;;;;;;;138.93;88.15;;;;;;;;;;4935566;29;20058;-81
2022/12/19 15:08:12;;;;;;;106.18;64.15;;;;;;;;;;4936590;29;20495;-82
2022/12/19 15:10:39;;;;;;;85.15;52.47;;;;;;;;;;4934922;29;20024;-83
2022/12/19 15:13:21;;;;;;;81.40;46.75;;;;;;;;;;4935338;29;20075;-80
2022/12/19 15:15:54;;;;;;;104.43;59.72;;;;;;;;;;4947585;29;20028;-79
2022/12/19 15:18:22;;;;;;;146.00;82.30;;;;;;;;;;4934751;29;20031;-82
2022/12/19 15:20:49;;;;;;;199.70;104.82;;;;;;;;;;4934645;29;20122;-80
2022/12/19 15:23:16;;;;;;;175.88;93.97;;;102.40;2227.20;;;;;;4935159;29;20536;-79
2022/12/19 15:25:42;;;;;;;105.72;55.17;;;77.70;2227.20;;;;;;4935017;29;20027;-82
2022/12/19 15:28:20;;;;;;;103.15;52.10;;;77.60;2227.20;;;;;;4935408;29;20033;-85
2022/12/19 15:30:51;;;;;;;128.75;66.72;;;77.60;2227.20;;;;;;4935369;29;20062;-81
2022/12/19 15:33:16;;;;;;;129.43;76.10;;;77.60;2227.20;;;;;;4935515;29;20115;-81
2022/12/19 15:35:43;;;;;;;99.82;56.22;;;77.60;2227.20;;;;;;4935317;29;20062;-82
2022/12/19 15:38:10;;;;;;;128.05;72.28;;;;;;;;;;4935059;29;20028;-81
2022/12/19 15:40:37;;;;;;;115.20;67.25;;;;;;;;;;4935288;29;20052;-83
2022/12/19 15:43:04;;;;;;;158.63;88.85;;;;;;;;;;4935790;29;20485;-82
2022/12/19 15:45:31;;;;;;;131.65;73.22;;;;;;;;;;4934996;29;20476;-83
2022/12/19 15:47:57;;;;;;;146.75;91.30;;;;;;;;;;4935025;29;20472;-82
2022/12/19 15:50:25;;;;;;;122.70;69.55;;;77.50;2227.20;;;;;;4935067;29;20122;-83
2022/12/19 15:52:54;;;;;;;123.30;71.43;;;77.40;2227.20;;;;;;4934653;29;20056;-83
2022/12/19 15:55:24;;;;;;;115.75;68.32;;;77.30;2227.20;;;;;;4935197;29;20023;-79
2022/12/19 15:58:00;;;;;;;77.80;46.05;;;77.40;2227.20;;;;;;4934757;29;20027;-84
2022/12/19 16:00:33;;;;;;;77.93;44.58;;;77.30;2227.20;;;;;;4934797;29;20384;-79
2022/12/19 16:02:59;;;;;;;69.90;41.42;;;77.30;2227.20;;;;;;4919471;29;20122;-81
2022/12/19 16:05:27;;;;;;;147.15;83.97;;;77.30;2227.20;;;;;;4934616;29;20127;-80
2022/12/19 16:07:55;;;;;;;151.77;91.45;;;77.30;2227.20;;;;;;4934918;29;20301;-79
2022/12/19 16:10:21;;;;;;;193.23;112.05;;;77.10;2227.20;;;;;;4935749;29;20035;-79
2022/12/19 16:12:50;;;;;;;248.43;144.00;;;77.10;2227.20;;;;;;4934904;29;20058;-81
2022/12/19 16:15:28;;;;;;;224.45;136.45;;;76.90;2227.20;;;;;;4934921;29;20028;-82
2022/12/19 16:17:57;;;;;;;244.52;140.27;;;77.00;2227.20;;;;;;4934910;29;20141;-82
2022/12/19 16:20:25;;;;;;;285.95;167.63;;;;;;;;;;4964355;28;20030;-83
2022/12/19 16:22:54;;;;;;;326.15;193.38;;;;;;;;;;4957490;29;20102;-82
2022/12/19 16:25:20;;;;;;;224.20;125.57;;;;;;;;;;4957650;29;20102;-82
2022/12/19 16:27:52;;;;;;;207.57;115.32;;;;;;;;;;4957515;29;20031;-82
2022/12/19 16:30:23;;;;;;;262.90;151.05;;;;;;;;;;4957402;29;20062;-82
2022/12/19 16:32:50;;;;;;;301.20;173.95;;;;;;;;;;4953165;29;20038;-80
2022/12/19 16:35:28;;;;;;;323.73;179.20;;;;;;;;;;4958162;29;20083;-85
2022/12/19 16:38:42;;;;;;;307.10;170.65;;;;;;;;;;4960903;28;20043;-84
2022/12/19 16:48:24;;;;;;;260.00;146.15;;;;;;;;;;4969320;28;20081;-84
2022/12/19 16:51:35;;;;;;;240.98;139.98;;;;;;;;;;4965211;29;20083;-82
2022/12/19 16:54:01;;;;;;;277.27;163.98;;;;;;;;;;4958398;29;20035;-80
2022/12/19 16:56:35;;;;;;;287.63;162.50;;;;;;;;;;4957271;29;20038;-80
2022/12/19 16:59:03;;;;;;;328.27;184.57;;;;;;;;;;4959772;29;20023;-79
2022/12/19 17:01:29;;;;;;;265.60;150.02;;;;;;;;;;4960170;29;20024;-80
2022/12/19 17:03:55;;;;;;;246.70;146.32;;;;;;;;;;4960168;29;20027;-79
2022/12/19 17:06:22;;;;;;;244.20;140.52;;;51.90;2227.20;;;;;;4963054;29;20039;-81
2022/12/19 17:08:48;;;;;;;318.80;175.73;;;51.80;2227.20;;;;;;4965433;29;20459;-80
2022/12/19 17:11:22;;;;;;;247.63;139.50;;;;;;;;;;4966741;29;20039;-79
2022/12/19 17:13:49;;;;;;;235.93;140.45;;;;;;;;;;4966562;29;20028;-80
2022/12/19 17:16:16;;;;;;;307.42;164.15;;;;;;;;;;4967524;29;20110;-81
2022/12/19 17:18:43;;;;;;;259.88;145.57;;;;;;;;;;4969703;29;20043;-80
2022/12/19 17:21:15;;;;;;;282.40;157.40;;;;;;;;;;4967661;29;20082;-79
2022/12/19 17:23:41;;;;;;;246.75;135.95;;;;;;;;;;4966670;29;20123;-79
2022/12/19 17:26:08;;;;;;;217.35;126.78;;;;;;;;;;4967814;29;20034;-79
2022/12/19 17:28:34;;;;;;;175.25;103.07;;;;;;;;;;4963437;29;20464;-78
2022/12/19 17:31:03;;;;;;;133.25;79.88;;;;;;;;;;4966310;28;20033;-78
2022/12/19 17:33:37;;;;;;;118.60;73.28;;;;;;;;;;4965801;29;20019;-78
2022/12/19 17:36:05;;;;;;;98.07;59.35;;;;;;;;;;4965449;29;20026;-78
2022/12/19 17:38:31;;;;;;;145.68;87.38;;;;;;;;;;4965720;29;20023;-78
2022/12/19 17:40:58;;;;;;;203.27;123.13;;;;;;;;;;4965421;29;20019;-79
2022/12/19 17:43:37;;;;;;;221.27;129.98;;;;;;;;;;4964998;29;20027;-81
2022/12/19 17:46:03;;;;;;;244.13;142.13;;;;;;;;;;4948144;29;20044;-79
2022/12/19 17:48:31;;;;;;;272.40;162.70;;;;;;;;;;4961704;29;20031;-80
2022/12/19 17:51:00;;;;;;;265.80;159.77;;;;;;;;;;4969151;29;20098;-80
2022/12/19 17:53:27;;;;;;;277.10;165.00;;;;;;;;;;4967583;29;20486;-79
2022/12/19 17:55:54;;;;;;;293.60;175.88;;;;;;;;;;4969326;29;20074;-78
2022/12/19 17:58:22;;;;;;;310.63;193.68;;;;;;;;;;4950470;29;20034;-78
2022/12/19 18:00:49;;;;;;;323.80;193.65;;;;;;;;;;4951107;29;20024;-78
2022/12/19 18:03:17;;;;;;;352.88;208.43;;;;;;;;;;4966533;29;20031;-79
2022/12/19 18:05:43;;;;;;;345.23;211.27;;;;;;;;;;4965021;28;20046;-77
2022/12/19 18:08:19;;;;;;;366.83;231.65;;;;;;;;;;4962055;29;20059;-77
2022/12/19 18:10:46;;;;;;;346.95;208.52;;;;;;;;;;4964799;29;20034;-78
2022/12/19 18:13:12;;;;;;;341.52;205.23;;;;;;;;;;4964289;28;20468;-77
2022/12/19 18:15:39;;;;;;;320.42;193.75;;;;;;;;;;4965750;29;20098;-78
2022/12/19 18:18:10;;;;;;;287.92;173.65;;;;;;;;;;4962480;29;20026;-81
2022/12/19 18:20:36;;;;;;;258.45;159.35;;;;;;;;;;4962989;29;20015;-78
2022/12/19 18:23:02;;;;;;;186.85;110.57;;;;;;;;;;4964120;29;20015;-78
2022/12/19 18:25:30;;;;;;;169.07;98.57;;;;;;;;;;4964475;29;20070;-80
2022/12/19 18:27:56;;;;;;;166.65;101.88;;;;;;;;;;4965918;29;20090;-80
2022/12/19 18:30:22;;;;;;;186.18;111.18;;;;;;;;;;4965558;29;20028;-78
2022/12/19 18:32:56;;;;;;;152.65;90.15;;;;;;;;;;4966719;29;20030;-78
2022/12/19 18:35:24;;;;;;;154.43;91.57;;;;;;;;;;4962809;29;20019;-77
2022/12/19 18:37:51;;;;;;;159.43;90.13;;;;;;;;;;4961781;29;20063;-78
2022/12/19 18:40:19;;;;;;;151.05;90.43;;;;;;;;;;4962694;29;20039;-78
2022/12/19 18:42:45;;;;;;;166.80;102.65;;;;;;;;;;4964834;28;20091;-78
2022/12/19 18:45:22;;;;;;;151.98;90.82;;;;;;;;;;4970694;28;20018;-78
2022/12/19 18:47:50;;;;;;;161.15;95.15;;;;;;;;;;4968773;28;20046;-78
2022/12/19 18:50:19;;;;;;;180.60;102.68;;;51.20;2227.20;;;;;;4966681;29;20031;-78
2022/12/19 18:52:46;;;;;;;179.52;101.57;;;26.30;2201.60;;;;;;4966406;29;20035;-78
2022/12/19 18:55:26;;;;;;;182.02;103.07;;;26.20;2201.60;;;;;;4964861;29;20106;-79
2022/12/19 18:57:52;;;;;;;171.02;101.63;;;26.30;2201.60;;;;;;4964988;29;20054;-80
2022/12/19 19:00:20;;;;;;;167.98;98.10;;;26.20;2201.60;;;;;;4961883;29;20476;-79
2022/12/19 19:02:53;;;;;;;183.73;104.78;;;26.20;2201.60;;;;;;4961219;29;20034;-78
2022/12/19 19:05:23;;;;;;;266.85;151.75;;;26.20;2201.60;;;;;;4963813;29;20027;-80
2022/12/19 19:07:49;;;;;;;186.38;114.03;;;26.30;2201.60;;;;;;4968940;29;20039;-79
2022/12/19 19:11:00;;;;;;;226.20;123.38;;;26.20;2201.60;;;;;;4969163;29;20042;-79
2022/12/19 19:13:52;;;;;;;219.50;124.95;;;26.30;2201.60;;;;;;4989147;28;20034;-79
2022/12/19 19:17:08;;;;;;;305.80;153.57;;;26.20;2201.60;;;;;;4955874;29;20028;-82
2022/12/19 19:20:39;;;;;;;236.65;135.82;;;26.20;2201.60;;;;;;4956652;29;20034;-80
2022/12/19 19:23:16;;;;;;;291.58;155.63;;;26.20;2201.60;;;;;;4951937;29;20047;-79
2022/12/19 19:26:40;;;;;;;252.10;134.43;;;26.00;2201.60;;;;;;4947529;29;20063;-78
2022/12/19 19:29:18;;;;;;;296.77;160.70;;;26.00;2201.60;;;;;;4979355;28;20090;-78
2022/12/19 19:31:50;;;;;;;314.42;173.98;;;26.00;2201.60;;;;;;4976457;28;20031;-79
2022/12/19 19:34:34;;;;;;;314.98;175.77;;;26.00;2201.60;;;;;;4958404;28;20030;-78
2022/12/19 19:37:04;;;;;;;324.40;195.73;;;26.20;2201.60;;;;;;4975875;28;20019;-79
2022/12/19 19:39:40;;;;;;;279.50;168.88;;;26.20;2201.60;;;;;;4964154;28;20031;-79
2022/12/19 19:42:34;;;;;;;297.25;172.80;;;26.20;2201.60;;;;;;4943146;28;20027;-80
2022/12/19 19:52:46;;;;;;;300.50;176.98;;;26.00;2201.60;;;;;;4965250;29;20074;-79
2022/12/19 19:56:09;;;;;;;325.95;189.05;;;25.90;2201.60;;;;;;4954315;28;20083;-78
2022/12/19 19:59:20;;;;;;;267.27;157.00;;;25.80;2201.60;;;;;;4931921;29;20599;-78
2022/12/19 20:05:46;;;;;;;239.23;141.38;;;25.80;2201.60;;;;;;4890320;29;20100;-80
2022/12/19 20:08:16;;;;;;;238.88;137.20;;;25.80;2201.60;;;;;;4912081;29;20025;-78
2022/12/19 20:11:03;;;;;;;234.18;135.10;;;25.70;2201.60;;;;;;4904069;29;20524;-78
2022/12/19 20:13:30;;;;;;;251.90;143.80;;;25.70;2201.60;;;;;;4897452;29;20047;-77
2022/12/19 20:16:24;;;;;;;220.75;131.23;;;25.70;2201.60;;;;;;4901790;29;20026;-77
2022/12/19 20:18:54;;;;;;;210.93;126.63;;;25.70;2201.60;;;;;;4907348;29;20035;-77
2022/12/19 20:21:25;;;;;;;221.73;130.52;;;25.70;2201.60;;;;;;4939798;29;20048;-77
2022/12/19 20:23:52;;;;;;;204.20;124.18;;;25.60;2201.60;;;;;;4965299;29;20031;-78
2022/12/19 20:26:18;;;;;;;333.63;184.13;;;25.70;2201.60;;;;;;4974245;29;20033;-78
2022/12/19 20:28:45;;;;;;;307.48;167.52;;;25.70;2201.60;;;;;;4977750;28;20038;-79
2022/12/19 20:31:31;;;;;;;241.13;137.50;;;25.60;2201.60;;;;;;5008112;23;20120;-78
2022/12/19 20:34:44;;;;;;;214.48;129.90;;;25.70;2201.60;;;;;;4995482;28;20038;-79
2022/12/19 20:37:10;;;;;;;223.93;129.30;;;25.70;2201.60;;;;;;4959701;28;20057;-77
2022/12/19 20:39:50;;;;;;;196.35;116.55;;;25.60;2201.60;;;;;;4977247;28;20027;-79
2022/12/19 20:42:48;;;;;;;201.90;121.03;;;25.70;2201.60;;;;;;4997974;28;20101;-78
2022/12/19 20:45:16;;;;;;;186.75;108.43;;;25.60;2201.60;;;;;;4971755;28;20043;-78
2022/12/19 20:48:31;;;;;;;214.82;122.72;;;0.90;2201.60;;;;;;4980708;28;20023;-78